Time;durP1;ratioP1;P1;durP2;ratioP2;P2;SDS_P1;SDS_P2;PMS_P1;PMS_P2;Temp;Humidity;BMP_temperature;BMP_pressure;BME280_temperature;BME280_humidity;BME280_pressure;Samples;Min_cycle;Max_cycle;Signal;HPM_P1;HPM_P2
2021/07/01 00:02:56;;;;;;;12.70;8.40;;;;;;;14.66;87.91;101225.97;5245963;22;20601;-85
2021/07/01 00:05:24;;;;;;;14.43;9.47;;;;;;;13.85;88.32;101116.75;5038675;28;20526;-85
2021/07/01 00:07:50;;;;;;;10.57;8.50;;;;;;;14.59;88.33;101220.63;5045130;28;20511;-84
2021/07/01 00:10:24;;;;;;;13.33;8.40;;;;;;;12.62;88.08;100914.69;5041738;28;20455;-84
2021/07/01 00:12:53;;;;;;;10.63;8.23;;;;;;;13.64;88.57;101080.13;5048787;28;20215;-84
2021/07/01 00:15:22;;;;;;;10.73;8.30;;;;;;;14.06;88.50;101130.97;5045242;28;20427;-85
2021/07/01 00:20:59;;;;;;;10.50;6.87;;;;;;;14.11;89.01;101140.06;5190072;22;20477;-85
2021/07/01 00:23:53;;;;;;;12.20;7.30;;;;;;;13.27;88.27;100973.94;5502844;22;20574;-86
2021/07/01 00:29:30;;;;;;;12.30;8.30;;;;;;;13.13;88.42;100956.97;5991931;22;20487;-85
2021/07/01 00:32:19;;;;;;;13.17;9.53;;;;;;;14.58;89.43;101199.22;5059944;28;20450;-84
2021/07/01 00:34:44;;;;;;;11.33;9.17;;;;;;;14.35;89.04;101181.69;5068319;28;20498;-85
2021/07/01 00:37:10;;;;;;;14.10;10.20;;;;;;;13.51;88.96;101015.47;5058490;28;20447;-84
2021/07/01 00:42:05;;;;;;;20.07;12.10;;;;;;;14.68;89.49;101202.28;5981781;22;20223;-85
2021/07/01 00:44:30;;;;;;;21.33;13.30;;;;;;;14.37;89.43;101141.81;5069485;28;20494;-85
2021/07/01 00:47:19;;;;;;;20.47;12.70;;;;;;;14.68;89.82;101197.72;5069434;28;20543;-85
2021/07/01 00:49:48;;;;;;;19.20;12.83;;;;;;;14.86;89.01;101215.06;5073465;28;21051;-85
2021/07/01 00:52:14;;;;;;;18.67;12.20;;;;;;;13.13;89.13;100981.19;5063841;28;20421;-85
2021/07/01 00:54:42;;;;;;;18.93;11.20;;;;;;;14.08;89.49;101123.50;5156746;22;20464;-85
2021/07/01 00:57:17;;;;;;;16.50;12.10;;;;;;;11.24;88.95;100622.50;5084643;28;20164;-85
2021/07/01 00:59:43;;;;;;;24.73;14.33;;;;;;;13.90;89.60;101084.56;5088045;28;20425;-86
2021/07/01 01:02:31;;;;;;;27.07;13.93;;;;;;;14.74;89.45;101187.09;5067644;28;20407;-85
2021/07/01 01:04:59;;;;;;;21.33;14.60;;;;;;;14.72;89.90;101200.81;5076637;28;20160;-84
2021/07/01 01:07:24;;;;;;;33.40;18.70;;;;;;;14.77;89.64;101195.59;5069044;28;20418;-84
2021/07/01 01:09:50;;;;;;;28.20;18.97;;;;;;;14.73;89.90;101178.19;5064765;28;20580;-83
2021/07/01 01:12:16;;;;;;;30.50;18.43;;;;;;;12.76;90.12;100867.84;5082893;28;20187;-83
2021/07/01 01:14:45;;;;;;;32.63;18.53;;;;;;;14.44;89.84;101106.69;5066080;28;20732;-84
2021/07/01 01:17:13;;;;;;;30.73;19.13;;;;;;;13.94;90.06;101058.84;5075935;28;20190;-85
2021/07/01 01:20:06;;;;;;;37.00;19.30;;;;;;;14.82;90.15;101167.94;5071043;28;20423;-84
2021/07/01 01:22:32;;;;;;;37.37;20.27;;;;;;;14.78;90.03;101159.47;5067595;28;20434;-83
2021/07/01 01:25:21;;;;;;;29.00;19.10;;;;;;;14.82;90.14;101179.56;5067738;28;20492;-83
2021/07/01 01:28:19;;;;;;;35.70;20.73;;;;;;;14.76;90.64;101169.63;5068502;28;20172;-82
2021/07/01 01:30:44;;;;;;;28.80;20.20;;;;;;;14.87;90.16;101168.13;5065779;28;20463;-85
2021/07/01 01:33:20;;;;;;;33.10;19.47;;;;;;;14.55;90.58;101135.72;5072737;28;20510;-84
2021/07/01 01:43:16;;;;;;;;;;;;;;;;;;;;;
2021/07/01 01:46:12;;;;;;;27.43;18.03;;;;;;;14.92;90.53;101170.97;5007847;28;20479;-84
2021/07/01 01:49:06;;;;;;;26.80;18.10;;;;;;;14.61;90.73;101124.06;5010938;28;20437;-83
2021/07/01 01:51:57;;;;;;;28.13;16.07;;;;;;;14.26;90.58;101050.75;5068798;28;21088;-84
2021/07/01 01:54:23;;;;;;;31.80;15.13;;;;;;;13.49;90.85;100934.06;5067432;28;20640;-84
2021/07/01 01:56:49;;;;;;;23.40;15.20;;;;;;;14.52;91.27;101103.75;5063478;28;20421;-84
2021/07/01 01:59:19;;;;;;;28.50;16.57;;;;;;;14.91;90.42;101155.81;5069287;28;20175;-85
2021/07/01 02:01:48;;;;;;;26.43;16.30;;;;;;;15.07;90.33;101181.44;5068236;28;20204;-85
2021/07/01 02:04:14;;;;;;;26.10;16.40;;;;;;;14.84;90.27;101128.03;5069870;28;20420;-84
2021/07/01 02:06:45;;;;;;;33.50;16.83;;;;;;;14.13;90.64;101018.50;5066757;28;20418;-84
2021/07/01 02:09:39;;;;;;;25.33;15.60;;;;;;;15.05;90.72;101154.66;5087121;28;20182;-83
2021/07/01 02:12:23;;;;;;;23.60;16.77;;;;;;;15.04;91.01;101155.72;5076384;28;20453;-86
2021/07/01 02:14:49;;;;;;;24.93;17.50;;;;;;;14.55;90.75;101079.03;5070229;28;20514;-86
2021/07/01 02:17:36;;;;;;;;;;;;;;;;;;;;;
2021/07/01 02:20:13;;;;;;;23.70;15.10;;;;;;;14.32;90.45;101013.97;5069628;28;20270;-87
2021/07/01 02:23:33;;;;;;;23.83;15.40;;;;;;;15.11;91.05;101161.88;5072776;28;20461;-86
2021/07/01 02:26:13;;;;;;;28.63;15.10;;;;;;;15.18;90.80;101179.91;4956210;28;20479;-87
2021/07/01 02:28:42;;;;;;;27.53;16.43;;;;;;;14.32;91.23;101032.88;4970048;28;20442;-86
2021/07/01 02:31:30;;;;;;;;;;;;;;;;;;;;;
2021/07/01 02:38:19;;;;;;;26.10;16.37;;;;;;;15.25;90.84;101154.50;4992677;28;20437;-86
2021/07/01 02:44:28;;;;;;;27.83;17.90;;;;;;;15.02;91.00;101116.47;5075960;28;20425;-88
2021/07/01 03:02:20;;;;;;;30.90;17.07;;;;;;;15.30;91.17;101138.44;4977397;29;20591;-86
2021/07/01 03:09:27;;;;;;;;;;;;;;;;;;;;;
2021/07/01 03:12:50;;;;;;;30.03;17.73;;;;;;;15.53;90.89;101150.47;4814274;29;20467;-86
2021/07/01 03:16:19;;;;;;;35.60;19.90;;;;;;;15.62;90.56;101151.00;4823500;29;20477;-87
2021/07/01 03:19:29;;;;;;;31.97;17.47;;;;;;;15.57;91.14;101152.50;4804754;29;20446;-87
2021/07/01 03:25:26;;;;;;;29.27;16.67;;;;;;;15.60;91.42;101143.94;5347907;22;20482;-87
2021/07/01 03:34:25;;;;;;;25.80;15.83;;;;;;;14.86;90.93;101013.34;5045692;28;20477;-86
2021/07/01 03:40:44;;;;;;;27.40;17.10;;;;;;;15.68;91.13;101145.56;5069045;28;20499;-86
2021/07/01 03:43:45;;;;;;;38.27;19.80;;;;;;;15.75;91.21;101159.81;5056383;28;20434;-85
2021/07/01 03:47:26;;;;;;;25.47;17.20;;;;;;;13.53;90.56;100798.66;5070970;28;20449;-85
2021/07/01 03:54:52;;;;;;;31.07;16.33;;;;;;;14.98;91.88;101023.41;5053323;28;20447;-87
2021/07/01 04:12:25;;;;;;;19.47;15.30;;;;;;;15.25;91.39;101046.41;4870021;29;20472;-88
2021/07/01 04:15:44;;;;;;;29.73;16.30;;;;;;;15.85;91.91;101158.47;4948797;28;21052;-88
2021/07/01 04:25:40;;;;;;;26.43;17.17;;;;;;;15.78;91.80;101132.34;4996434;28;20485;-85
2021/07/01 04:38:28;;;;;;;24.63;16.23;;;;;;;16.02;91.33;101151.41;5991823;22;20525;-88
2021/07/01 04:41:29;;;;;;;33.60;18.47;;;;;;;16.12;91.36;101157.09;5013904;28;20449;-87
2021/07/01 04:47:26;;;;;;;24.80;16.90;;;;;;;16.02;92.28;101163.03;5543356;22;20540;-88
2021/07/01 04:50:15;;;;;;;26.73;16.10;;;;;;;15.03;91.72;100991.16;5270707;22;21583;-87
2021/07/01 04:53:38;;;;;;;32.33;18.83;;;;;;;16.17;91.26;101175.34;5038771;28;20466;-87
2021/07/01 05:00:50;;;;;;;28.73;17.10;;;;;;;16.09;91.59;101171.09;5034475;28;20823;-87
2021/07/01 05:07:40;;;;;;;;;;;;;;;;;;;;;
2021/07/01 05:10:56;;;;;;;31.10;17.47;;;;;;;16.12;91.54;101170.63;4993887;28;20471;-88
2021/07/01 05:13:51;;;;;;;37.23;19.80;;;;;;;16.23;90.82;101172.59;5037371;28;20605;-87
2021/07/01 05:16:34;;;;;;;25.73;16.53;;;;;;;16.08;91.49;101163.19;5036128;28;20463;-89
2021/07/01 05:20:07;;;;;;;37.20;19.07;;;;;;;15.53;91.65;101089.09;5034221;28;20424;-86
2021/07/01 05:22:33;;;;;;;32.40;20.40;;;;;;;15.10;91.21;101027.84;5037045;28;20455;-87
2021/07/01 05:24:58;;;;;;;39.90;20.40;;;;;;;15.84;91.50;101151.41;5050881;28;20443;-88
2021/07/01 05:27:53;;;;;;;33.33;20.73;;;;;;;16.14;91.62;101173.09;5038489;28;20443;-87
2021/07/01 05:30:19;;;;;;;32.53;18.53;;;;;;;16.13;92.18;101185.81;5037103;28;20286;-86
2021/07/01 05:33:17;;;;;;;28.40;19.77;;;;;;;16.07;92.49;101191.31;5042577;28;20434;-85
2021/07/01 05:35:42;;;;;;;44.63;22.73;;;;;;;16.12;91.58;101172.53;5036357;28;20207;-87
2021/07/01 05:38:29;;;;;;;37.57;21.30;;;;;;;16.20;91.36;101180.31;5044139;28;20442;-85
2021/07/01 05:40:54;;;;;;;29.53;18.43;;;;;;;14.96;92.14;100999.34;5047037;28;20458;-83
2021/07/01 05:43:19;;;;;;;49.70;22.60;;;;;;;16.01;91.84;101188.44;5037108;28;20508;-84
2021/07/01 05:45:48;;;;;;;38.77;21.43;;;;;;;15.51;92.08;101107.44;5056013;28;20291;-85
2021/07/01 05:55:22;;;;;;;27.23;19.23;;;;;;;15.40;91.74;101056.84;5048127;28;20466;-84
2021/07/01 05:58:17;;;;;;;28.03;18.67;;;;;;;16.08;92.03;101179.44;5040559;28;20435;-84
2021/07/01 06:01:23;;;;;;;33.90;20.70;;;;;;;15.76;92.17;101120.91;5040510;28;20467;-81
2021/07/01 06:04:00;;;;;;;33.40;20.07;;;;;;;15.97;92.25;101172.91;5037632;28;20435;-82
2021/07/01 06:12:25;;;;;;;43.63;23.00;;;;;;;15.69;91.19;101106.66;5041379;28;20503;-82
2021/07/01 06:15:29;;;;;;;30.90;19.73;;;;;;;16.25;91.27;101183.16;5044942;28;20456;-86
2021/07/01 06:21:22;;;;;;;30.40;19.10;;;;;;;16.14;92.05;101171.25;5036953;28;20472;-85
2021/07/01 06:27:56;;;;;;;30.20;19.80;;;;;;;16.26;91.58;101187.53;5037623;28;20434;-84
2021/07/01 06:31:37;;;;;;;38.10;20.03;;;;;;;16.23;91.56;101191.53;5004370;22;20492;-82
2021/07/01 06:34:01;;;;;;;26.57;17.77;;;;;;;16.19;91.72;101195.72;5061336;28;20485;-87
2021/07/01 06:36:33;;;;;;;26.80;20.60;;;;;;;15.91;91.97;101147.59;5063824;28;20448;-86
2021/07/01 06:39:05;;;;;;;31.23;19.40;;;;;;;15.72;92.05;101108.91;5062702;28;20437;-84
2021/07/01 06:41:52;;;;;;;40.80;20.50;;;;;;;16.30;91.93;101187.91;5050220;28;20454;-86
2021/07/01 06:44:28;;;;;;;27.53;17.90;;;;;;;15.89;91.66;101098.28;5050779;28;20510;-85
2021/07/01 06:47:03;;;;;;;29.90;18.47;;;;;;;15.33;92.08;101031.75;5048441;28;20517;-84
2021/07/01 06:49:34;;;;;;;23.40;16.73;;;;;;;15.10;92.23;100989.19;5054365;28;20433;-84
2021/07/01 06:52:02;;;;;;;25.13;17.03;;;;;;;16.30;92.16;101191.44;5052677;28;20453;-86
2021/07/01 06:54:29;;;;;;;29.80;20.27;;;;;;;14.11;92.03;100859.56;5054952;28;20470;-86
2021/07/01 06:56:58;;;;;;;30.60;19.03;;;;;;;15.29;91.99;101031.38;5070846;28;20506;-84
2021/07/01 06:59:24;;;;;;;30.13;18.77;;;;;;;16.00;91.80;101153.53;5050364;28;20450;-83
2021/07/01 07:02:13;;;;;;;31.37;18.93;;;;;;;16.47;91.87;101197.88;5050424;28;20453;-83
2021/07/01 07:04:40;;;;;;;26.03;17.47;;;;;;;16.51;91.27;101225.31;5041156;28;20439;-84
2021/07/01 07:07:06;;;;;;;27.17;18.60;;;;;;;15.32;92.02;101016.59;5051822;28;20414;-85
2021/07/01 07:09:41;;;;;;;36.10;19.43;;;;;;;16.34;91.91;101179.09;5053324;28;20423;-85
2021/07/01 07:12:07;;;;;;;26.30;19.10;;;;;;;15.38;92.39;101054.34;5049989;28;20457;-85
2021/07/01 07:14:32;;;;;;;35.10;18.30;;;;;;;15.27;91.83;101005.63;5052649;28;20454;-84
2021/07/01 07:16:58;;;;;;;27.93;16.57;;;;;;;16.43;92.13;101202.09;5047799;28;20167;-84
2021/07/01 07:19:31;;;;;;;28.80;18.03;;;;;;;16.56;91.34;101201.06;5065555;28;20251;-84
2021/07/01 07:22:03;;;;;;;28.70;17.03;;;;;;;16.58;91.67;101201.69;5047186;28;20527;-84
2021/07/01 07:24:31;;;;;;;26.63;16.60;;;;;;;16.31;91.56;101157.88;5052816;28;20458;-83
2021/07/01 07:26:57;;;;;;;28.50;17.00;;;;;;;16.76;91.10;101205.41;5050483;28;20473;-83
2021/07/01 07:29:32;;;;;;;23.77;16.90;;;;;;;16.17;91.13;101116.66;5048922;28;20545;-85
2021/07/01 07:32:04;;;;;;;29.90;16.83;;;;;;;16.76;91.08;101156.63;5065077;28;20219;-86
2021/07/01 07:34:31;;;;;;;33.60;19.03;;;;;;;17.06;90.42;101189.94;5050263;28;20525;-84
2021/07/01 07:36:57;;;;;;;27.37;17.47;;;;;;;16.19;90.17;101049.59;5048477;28;20514;-86
2021/07/01 07:39:24;;;;;;;19.93;15.37;;;;;;;17.14;90.80;101200.44;5049767;28;20415;-85
2021/07/01 07:41:50;;;;;;;20.50;15.67;;;;;;;17.17;90.82;101202.69;5052855;28;20527;-84
2021/07/01 07:44:17;;;;;;;21.73;15.13;;;;;;;16.98;90.43;101167.75;5050758;28;20434;-84
2021/07/01 07:46:43;;;;;;;29.03;17.67;;;;;;;16.85;91.01;101166.94;5045505;28;20251;-86
2021/07/01 07:49:17;;;;;;;24.60;17.37;;;;;;;16.69;91.35;101152.16;5053380;28;20480;-85
2021/07/01 07:51:56;;;;;;;31.50;18.30;;;;;;;16.81;91.04;101176.59;5054131;28;20548;-84
2021/07/01 07:54:35;;;;;;;26.27;17.20;;;;;;;16.61;91.59;101170.63;5070322;28;20489;-87
2021/07/01 07:57:02;;;;;;;32.70;18.10;;;;;;;16.94;91.34;101208.88;5046461;28;21046;-84
2021/07/01 07:59:29;;;;;;;21.33;14.30;;;;;;;16.83;91.02;101157.38;5051748;28;20423;-85
2021/07/01 08:02:02;;;;;;;20.90;15.10;;;;;;;16.46;90.73;101104.16;5051997;28;20455;-88
2021/07/01 08:04:38;;;;;;;16.87;13.37;;;;;;;16.98;90.88;101186.72;5066163;28;20419;-85
2021/07/01 08:07:05;;;;;;;20.37;14.07;;;;;;;17.07;91.72;101223.31;5051790;28;20498;-86
2021/07/01 08:09:30;;;;;;;23.23;15.40;;;;;;;16.97;92.56;101234.69;5047502;28;20461;-87
2021/07/01 08:11:58;;;;;;;17.47;13.40;;;;;;;16.39;90.94;101089.91;5050648;28;20459;-85
2021/07/01 08:14:24;;;;;;;23.57;16.90;;;;;;;17.38;90.50;101222.16;5053906;28;20455;-86
2021/07/01 08:16:53;;;;;;;30.30;20.13;;;;;;;17.40;89.79;101222.75;5043986;28;20424;-89
2021/07/01 08:19:18;;;;;;;16.30;13.87;;;;;;;17.30;90.13;101185.38;5050172;28;20435;-85
2021/07/01 08:21:47;;;;;;;23.20;15.70;;;;;;;17.61;89.54;101213.19;5049190;28;20486;-86
2021/07/01 08:24:13;;;;;;;19.57;14.80;;;;;;;17.69;89.22;101217.44;5049161;28;20176;-84
2021/07/01 08:26:39;;;;;;;18.10;13.83;;;;;;;16.63;89.04;101043.91;5051420;28;20513;-85
2021/07/01 08:29:05;;;;;;;23.83;15.87;;;;;;;16.42;89.18;101029.88;5045447;28;20184;-85
2021/07/01 08:31:32;;;;;;;18.33;14.83;;;;;;;17.57;89.99;101217.44;5070482;28;20989;-85
2021/07/01 08:34:04;;;;;;;22.53;14.80;;;;;;;16.40;89.29;101028.44;5071357;28;20458;-83
2021/07/01 08:36:33;;;;;;;24.47;15.10;;;;;;;17.44;89.59;101239.38;5048286;28;20445;-85
2021/07/01 08:38:58;;;;;;;16.17;12.83;;;;;;;15.95;89.83;100991.06;5047616;28;20461;-84
2021/07/01 08:41:29;;;;;;;22.03;17.00;;;;;;;16.66;89.37;101100.31;5044925;28;20459;-86
2021/07/01 08:44:01;;;;;;;24.90;15.57;;;;;;;17.65;89.76;101237.94;5070324;28;20167;-84
2021/07/01 08:46:49;;;;;;;17.53;13.50;;;;;;;17.53;89.75;101219.81;5050307;28;20434;-83
2021/07/01 08:49:37;;;;;;;16.70;12.30;;;;;;;17.54;90.03;101245.88;5049580;28;20438;-84
2021/07/01 08:52:06;;;;;;;20.10;12.77;;;;;;;17.55;89.73;101235.84;5049312;28;20429;-83
2021/07/01 08:54:35;;;;;;;20.33;14.07;;;;;;;16.93;89.82;101136.78;5048567;28;20524;-86
2021/07/01 08:57:11;;;;;;;20.30;12.90;;;;;;;17.60;89.81;101236.78;5049188;28;20501;-86
2021/07/01 09:00:09;;;;;;;13.87;11.20;;;;;;;17.56;90.15;101227.47;5046310;28;20438;-84
2021/07/01 09:03:03;;;;;;;16.50;12.30;;;;;;;17.65;90.33;101236.09;5045564;28;20446;-83
2021/07/01 09:05:34;;;;;;;17.13;13.87;;;;;;;17.63;89.61;101227.34;5061558;28;20424;-83
2021/07/01 09:08:11;;;;;;;20.20;14.00;;;;;;;17.45;88.40;101190.34;5042728;28;20442;-83
2021/07/01 09:10:38;;;;;;;16.10;12.20;;;;;;;17.57;88.51;101193.03;5037520;28;20457;-82
2021/07/01 09:13:10;;;;;;;18.90;11.97;;;;;;;17.78;89.30;101240.47;5052817;28;20974;-85
2021/07/01 09:15:38;;;;;;;20.60;13.40;;;;;;;16.90;88.63;101110.16;5037614;28;20434;-84
2021/07/01 09:18:11;;;;;;;17.33;12.80;;;;;;;17.51;89.20;101204.84;5045363;28;20447;-86
2021/07/01 09:20:38;;;;;;;17.57;14.30;;;;;;;16.09;90.15;101027.69;5043066;28;20458;-83
2021/07/01 09:23:06;;;;;;;16.30;12.00;;;;;;;17.09;89.60;101170.50;5048021;28;20442;-85
2021/07/01 09:25:32;;;;;;;15.20;11.87;;;;;;;17.61;89.70;101243.03;5043999;28;20453;-87
2021/07/01 09:27:59;;;;;;;16.67;12.50;;;;;;;17.42;89.14;101198.13;5044276;28;20438;-84
2021/07/01 09:30:28;;;;;;;14.30;11.57;;;;;;;17.59;89.07;101216.16;5047901;28;20462;-86
2021/07/01 09:33:09;;;;;;;14.83;10.77;;;;;;;17.63;89.13;101211.06;5054439;28;20435;-86
2021/07/01 09:35:36;;;;;;;15.03;13.33;;;;;;;17.80;88.62;101231.03;5051369;28;20435;-86
2021/07/01 09:38:11;;;;;;;17.80;12.30;;;;;;;18.05;87.77;101247.06;5049286;28;20530;-82
2021/07/01 09:45:26;;;;;;;21.97;14.77;;;;;;;18.26;86.99;101251.03;5018564;28;20433;-83
2021/07/01 09:47:56;;;;;;;20.03;14.70;;;;;;;18.36;86.59;101253.13;5011317;28;20462;-84
2021/07/01 09:50:26;;;;;;;29.20;14.70;;;;;;;18.43;86.34;101250.28;5060260;28;20450;-84
2021/07/01 09:52:57;;;;;;;15.53;12.33;;;;;;;18.66;85.52;101250.19;5043535;28;20446;-84
2021/07/01 09:55:28;;;;;;;18.40;12.77;;;;;;;18.77;85.41;101248.50;5047873;28;20432;-83
2021/07/01 09:57:56;;;;;;;17.70;12.67;;;;;;;19.06;85.34;101253.91;5044533;28;20466;-82
2021/07/01 10:00:26;;;;;;;14.93;11.43;;;;;;;19.31;86.37;101248.91;5036542;28;20469;-83
2021/07/01 10:03:04;;;;;;;11.20;10.00;;;;;;;19.30;85.54;101260.06;5057276;28;20443;-82
2021/07/01 10:05:30;;;;;;;13.43;9.40;;;;;;;18.77;85.89;101168.88;5043819;28;20425;-82
2021/07/01 10:07:56;;;;;;;11.80;9.43;;;;;;;18.99;83.94;101224.19;5059538;28;20474;-82
2021/07/01 10:10:22;;;;;;;19.03;10.70;;;;;;;19.25;84.50;101258.06;5058924;28;20967;-82
2021/07/01 10:12:56;;;;;;;15.40;12.50;;;;;;;18.70;83.64;101177.16;5043954;28;20199;-82
2021/07/01 10:15:30;;;;;;;14.20;9.33;;;;;;;19.33;84.57;101259.56;5037850;28;20457;-82
2021/07/01 10:18:11;;;;;;;10.67;9.10;;;;;;;19.14;84.24;101202.69;5039465;28;20451;-80
2021/07/01 10:20:47;;;;;;;12.90;10.10;;;;;;;19.33;82.71;101270.44;5033305;28;20455;-82
2021/07/01 10:23:36;;;;;;;15.93;9.80;;;;;;;19.33;83.08;101259.56;5040969;28;20460;-81
2021/07/01 10:26:23;;;;;;;11.20;9.23;;;;;;;19.04;83.31;101207.97;5043569;28;20585;-81
2021/07/01 10:29:08;;;;;;;15.30;9.63;;;;;;;18.85;83.89;101211.97;5032934;28;20447;-81
2021/07/01 10:32:06;;;;;;;9.93;8.93;;;;;;;19.06;84.90;101265.59;5053356;28;20495;-81
2021/07/01 10:34:46;;;;;;;11.87;9.57;;;;;;;18.99;84.78;101231.50;5055929;28;20467;-82
2021/07/01 10:37:26;;;;;;;12.67;9.03;;;;;;;19.33;83.71;101256.84;5036761;28;20520;-82
2021/07/01 10:39:52;;;;;;;13.47;9.97;;;;;;;19.42;83.97;101260.78;5056349;28;20532;-82
2021/07/01 10:42:18;;;;;;;10.37;9.27;;;;;;;19.40;82.74;101258.31;5059974;28;20532;-82
2021/07/01 10:44:45;;;;;;;10.37;8.53;;;;;;;19.45;82.46;101264.91;5047018;28;20431;-82
2021/07/01 10:47:31;;;;;;;9.27;7.83;;;;;;;19.22;82.01;101209.59;5053977;28;20446;-82
2021/07/01 10:49:58;;;;;;;11.93;9.10;;;;;;;19.54;82.09;101261.53;5035357;28;21026;-83
2021/07/01 10:52:38;;;;;;;23.23;10.67;;;;;;;18.85;81.80;101139.41;5036717;28;20438;-83
2021/07/01 10:55:05;;;;;;;30.23;12.03;;;;;;;19.39;81.54;101234.91;5032968;28;20478;-83
2021/07/01 10:57:31;;;;;;;12.07;10.10;;;;;;;19.51;81.36;101244.88;5052154;28;20450;-82
2021/07/01 10:59:58;;;;;;;10.13;9.10;;;;;;;19.73;80.94;101258.56;5034108;28;20454;-82
2021/07/01 11:02:33;;;;;;;11.13;8.67;;;;;;;19.53;81.59;101251.72;5035243;28;20641;-83
2021/07/01 11:05:05;;;;;;;12.40;10.43;;;;;;;19.76;81.06;101271.66;5042418;28;20513;-83
2021/07/01 11:07:45;;;;;;;10.63;8.83;;;;;;;19.87;81.64;101265.28;5030545;28;20449;-82
2021/07/01 11:10:12;;;;;;;22.60;10.00;;;;;;;19.49;80.37;101227.97;5040386;28;20470;-81
2021/07/01 11:12:47;;;;;;;14.57;11.10;;;;;;;19.91;80.12;101263.75;5042795;28;20443;-80
2021/07/01 11:15:13;;;;;;;17.80;10.83;;;;;;;19.72;79.36;101235.16;5040142;28;20484;-82
2021/07/01 11:17:41;;;;;;;11.30;8.60;;;;;;;20.02;79.97;101268.25;5034018;28;20889;-82
2021/07/01 11:20:24;;;;;;;10.40;9.30;;;;;;;19.95;79.42;101236.84;5051272;28;20462;-82
2021/07/01 11:22:54;;;;;;;10.57;8.87;;;;;;;19.95;79.27;101228.66;5045596;28;20430;-82
2021/07/01 11:25:42;;;;;;;14.07;9.40;;;;;;;20.20;79.80;101271.75;5056694;28;20430;-81
2021/07/01 11:28:31;;;;;;;11.67;9.20;;;;;;;20.23;80.97;101277.50;5042092;28;20430;-81
2021/07/01 11:31:02;;;;;;;11.53;9.03;;;;;;;20.25;79.49;101271.81;5034866;28;20462;-81
2021/07/01 11:33:29;;;;;;;10.00;9.00;;;;;;;20.20;79.08;101269.84;5028744;28;20462;-83
2021/07/01 11:36:12;;;;;;;11.17;8.93;;;;;;;20.17;79.35;101239.59;5027152;28;20450;-78
2021/07/01 11:38:39;;;;;;;10.80;9.67;;;;;;;20.63;78.47;101276.41;5031411;28;20457;-80
2021/07/01 11:41:05;;;;;;;10.90;9.17;;;;;;;20.66;77.23;101266.91;5030684;28;20482;-81
2021/07/01 11:43:33;;;;;;;11.43;9.23;;;;;;;20.58;76.55;101251.00;5034173;28;20458;-81
2021/07/01 11:45:59;;;;;;;12.20;9.50;;;;;;;20.38;76.30;101165.19;5049108;28;20196;-81
2021/07/01 11:48:27;;;;;;;10.30;8.90;;;;;;;20.93;76.50;101281.34;5035509;28;20521;-82
2021/07/01 11:50:55;;;;;;;10.50;9.27;;;;;;;20.53;75.79;101216.31;5037389;28;20476;-84
2021/07/01 11:53:22;;;;;;;12.73;9.70;;;;;;;20.83;75.80;101278.53;5028675;28;20473;-84
2021/07/01 11:55:50;;;;;;;9.53;8.60;;;;;;;20.67;76.35;101224.94;5024939;28;20452;-82
2021/07/01 11:58:16;;;;;;;9.73;8.60;;;;;;;20.45;74.23;101219.47;5046429;28;20465;-84
2021/07/01 12:00:42;;;;;;;11.93;9.30;;;;;;;20.08;76.62;101187.47;5026520;28;20462;-83
2021/07/01 12:03:11;;;;;;;16.90;11.10;;;;;;;19.90;75.68;101165.97;5025328;28;20439;-84
2021/07/01 12:05:42;;;;;;;13.70;10.10;;;;;;;18.79;74.70;100996.38;5025821;28;20462;-84
2021/07/01 12:08:08;;;;;;;14.80;11.80;;;;;;;20.70;73.96;101266.09;5027313;28;20447;-83
2021/07/01 12:10:34;;;;;;;12.60;9.73;;;;;;;20.62;74.57;101257.56;5028281;28;20454;-83
2021/07/01 12:12:59;;;;;;;13.97;9.87;;;;;;;20.77;73.39;101265.91;5027024;28;20505;-84
2021/07/01 12:15:25;;;;;;;11.60;9.77;;;;;;;20.84;74.34;101257.53;5029237;28;20565;-84
2021/07/01 12:18:03;;;;;;;9.00;8.00;;;;;;;21.17;74.39;101289.22;5023668;28;20192;-83
2021/07/01 12:20:36;;;;;;;10.10;7.97;;;;;;;21.20;74.04;101286.81;5020407;28;20309;-83
2021/07/01 12:23:11;;;;;;;9.97;8.30;;;;;;;21.25;74.80;101288.75;5038010;28;20435;-82
2021/07/01 12:25:43;;;;;;;17.33;10.33;;;;;;;20.47;73.79;101211.88;5043347;28;20453;-83
2021/07/01 12:28:10;;;;;;;12.47;10.10;;;;;;;20.51;74.33;101186.59;5023806;28;21001;-83
2021/07/01 12:30:58;;;;;;;14.30;10.17;;;;;;;21.44;73.16;101300.94;5027409;28;20468;-83
2021/07/01 12:33:56;;;;;;;10.30;8.50;;;;;;;21.20;73.48;101299.59;5026983;28;21041;-84
2021/07/01 12:36:32;;;;;;;11.37;9.70;;;;;;;21.05;73.10;101305.72;5025408;28;20447;-86
2021/07/01 12:39:08;;;;;;;11.20;9.13;;;;;;;21.26;74.86;101301.28;5048106;28;20481;-86
2021/07/01 12:41:33;;;;;;;13.67;9.83;;;;;;;21.04;72.99;101297.81;5032079;22;20545;-86
2021/07/01 12:44:08;;;;;;;11.73;10.27;;;;;;;21.09;72.99;101292.41;5000497;28;20440;-86
2021/07/01 12:46:46;;;;;;;16.30;10.83;;;;;;;20.80;73.19;101303.59;5003483;28;20328;-86
2021/07/01 12:49:29;;;;;;;12.77;10.87;;;;;;;21.06;72.71;101306.56;5002339;28;20435;-85
2021/07/01 12:52:13;;;;;;;11.00;9.47;;;;;;;21.26;74.31;101311.38;5001776;28;20539;-85
2021/07/01 12:54:40;;;;;;;14.97;10.90;;;;;;;21.18;73.36;101309.97;5008042;28;20468;-86
2021/07/01 12:57:07;;;;;;;15.07;10.90;;;;;;;21.23;72.56;101310.00;5002621;28;20494;-85
2021/07/01 12:59:44;;;;;;;16.50;11.30;;;;;;;21.03;71.77;101309.78;5001089;28;20889;-86
2021/07/01 13:02:44;;;;;;;11.13;10.00;;;;;;;21.23;71.86;101307.25;5001560;28;20459;-86
2021/07/01 13:05:15;;;;;;;15.50;11.00;;;;;;;21.36;72.12;101317.78;4989633;28;20443;-86
2021/07/01 13:07:42;;;;;;;18.23;10.90;;;;;;;21.32;73.36;101313.94;5001532;28;20868;-86
2021/07/01 13:10:12;;;;;;;14.50;12.57;;;;;;;20.79;73.72;101266.47;5003134;28;20984;-85
2021/07/01 13:12:39;;;;;;;10.73;9.70;;;;;;;21.36;71.31;101328.72;5000775;28;20433;-86
2021/07/01 13:15:12;;;;;;;15.07;11.83;;;;;;;21.43;71.02;101323.84;5001747;28;20461;-86
2021/07/01 13:17:38;;;;;;;16.37;10.47;;;;;;;21.71;71.01;101319.19;5002686;28;20444;-86
2021/07/01 13:20:09;;;;;;;14.20;10.60;;;;;;;21.46;71.70;101314.31;5007628;28;20457;-84
2021/07/01 13:22:39;;;;;;;11.33;10.13;;;;;;;21.55;71.23;101323.69;5005596;28;20199;-83
2021/07/01 13:25:07;;;;;;;12.90;10.80;;;;;;;20.95;71.48;101240.19;5002636;28;20428;-83
2021/07/01 13:27:39;;;;;;;11.40;9.77;;;;;;;21.33;72.51;101322.94;5001571;28;20468;-83
2021/07/01 13:30:10;;;;;;;12.83;9.30;;;;;;;21.03;71.69;101329.72;5002054;28;20475;-84
2021/07/01 13:32:36;;;;;;;9.50;8.60;;;;;;;20.84;72.82;101325.69;5002531;28;20441;-85
2021/07/01 13:35:04;;;;;;;10.37;9.10;;;;;;;20.68;73.37;101330.13;5008429;28;20471;-85
2021/07/01 13:37:31;;;;;;;10.77;8.83;;;;;;;20.46;75.30;101330.13;5008139;28;20432;-85
2021/07/01 13:40:11;;;;;;;11.40;9.93;;;;;;;20.41;74.34;101340.94;5001469;28;20476;-85
2021/07/01 13:42:36;;;;;;;13.17;9.70;;;;;;;20.72;73.17;101317.66;5003128;28;20538;-85
2021/07/01 13:45:10;;;;;;;11.60;9.97;;;;;;;21.14;72.62;101308.81;5007948;28;20461;-84
2021/07/01 13:47:54;;;;;;;12.77;10.93;;;;;;;21.23;72.56;101304.53;5006999;28;20192;-84
2021/07/01 13:50:31;;;;;;;12.30;9.80;;;;;;;20.83;70.92;101201.34;5000936;28;20980;-85
2021/07/01 13:53:00;;;;;;;12.27;10.13;;;;;;;20.98;70.95;101247.88;5001065;28;20805;-84
2021/07/01 13:55:30;;;;;;;12.80;8.97;;;;;;;21.85;70.80;101325.84;5001121;28;20842;-84
2021/07/01 13:57:56;;;;;;;16.90;10.83;;;;;;;21.69;70.55;101323.25;5001137;28;20498;-84
2021/07/01 14:00:52;;;;;;;13.73;10.17;;;;;;;21.47;69.77;101312.44;5006550;28;20453;-84
2021/07/01 14:03:26;;;;;;;13.17;9.57;;;;;;;21.49;71.04;101334.81;5000291;28;20441;-84
2021/07/01 14:05:58;;;;;;;12.80;10.33;;;;;;;21.61;69.66;101319.09;5006588;28;20440;-84
2021/07/01 14:08:26;;;;;;;10.87;9.77;;;;;;;21.98;70.17;101330.00;5002229;28;20429;-84
2021/07/01 14:11:02;;;;;;;15.43;9.77;;;;;;;21.96;68.65;101342.28;5001488;28;20477;-84